sensor_id;sensor_type;location;lat;lon;timestamp;pressure;altitude;pressure_sealevel;temperature;humidity
11806;BME280;5960;42.602;23.482;2022-11-22T00:00:32;92843.41;;;4.97;79.19
11806;BME280;5960;42.602;23.482;2022-11-22T00:02:58;92844.56;;;4.94;79.79
11806;BME280;5960;42.602;23.482;2022-11-22T00:05:26;92838.78;;;5.07;79.27
11806;BME280;5960;42.602;23.482;2022-11-22T00:07:53;92840.09;;;5.11;79.02
11806;BME280;5960;42.602;23.482;2022-11-22T00:10:20;92839.88;;;5.21;79.57
11806;BME280;5960;42.602;23.482;2022-11-22T00:12:47;92847.53;;;5.23;79.20
11806;BME280;5960;42.602;23.482;2022-11-22T00:15:13;92841.44;;;5.31;79.47
11806;BME280;5960;42.602;23.482;2022-11-22T00:17:40;92837.41;;;5.20;78.65
11806;BME280;5960;42.602;23.482;2022-11-22T00:20:07;92838.63;;;5.09;78.37
11806;BME280;5960;42.602;23.482;2022-11-22T00:22:37;92847.09;;;5.11;79.25
11806;BME280;5960;42.602;23.482;2022-11-22T00:25:05;92843.84;;;5.09;78.97
11806;BME280;5960;42.602;23.482;2022-11-22T00:27:32;92839.41;;;5.18;78.92
11806;BME280;5960;42.602;23.482;2022-11-22T00:29:59;92842.63;;;5.20;78.48
11806;BME280;5960;42.602;23.482;2022-11-22T00:32:26;92852.75;;;5.23;79.16
11806;BME280;5960;42.602;23.482;2022-11-22T00:34:52;92840.00;;;5.28;79.11
11806;BME280;5960;42.602;23.482;2022-11-22T00:37:19;92845.00;;;5.38;78.00
11806;BME280;5960;42.602;23.482;2022-11-22T00:39:47;92852.81;;;5.38;78.22
11806;BME280;5960;42.602;23.482;2022-11-22T00:42:14;92844.75;;;5.48;78.44
11806;BME280;5960;42.602;23.482;2022-11-22T00:44:41;92843.47;;;5.43;79.11
11806;BME280;5960;42.602;23.482;2022-11-22T00:47:07;92850.94;;;5.55;78.88
11806;BME280;5960;42.602;23.482;2022-11-22T00:49:34;92851.91;;;5.54;79.64
11806;BME280;5960;42.602;23.482;2022-11-22T00:52:01;92844.16;;;5.69;78.21
11806;BME280;5960;42.602;23.482;2022-11-22T00:54:27;92851.03;;;5.62;78.14
11806;BME280;5960;42.602;23.482;2022-11-22T00:56:55;92852.75;;;5.78;79.75
11806;BME280;5960;42.602;23.482;2022-11-22T00:59:22;92842.63;;;5.75;77.41
11806;BME280;5960;42.602;23.482;2022-11-22T01:01:49;92835.31;;;5.70;77.51
11806;BME280;5960;42.602;23.482;2022-11-22T01:04:16;92833.06;;;5.67;78.13
11806;BME280;5960;42.602;23.482;2022-11-22T01:06:42;92830.38;;;5.75;79.48
11806;BME280;5960;42.602;23.482;2022-11-22T01:09:09;92838.38;;;5.73;80.35
11806;BME280;5960;42.602;23.482;2022-11-22T01:11:42;92824.03;;;5.69;78.87
11806;BME280;5960;42.602;23.482;2022-11-22T01:14:10;92831.88;;;5.69;78.89
11806;BME280;5960;42.602;23.482;2022-11-22T01:16:37;92830.56;;;5.50;79.61
11806;BME280;5960;42.602;23.482;2022-11-22T01:19:04;92827.22;;;5.56;79.66
11806;BME280;5960;42.602;23.482;2022-11-22T01:21:30;92833.50;;;5.47;79.85
11806;BME280;5960;42.602;23.482;2022-11-22T01:23:57;92831.22;;;5.52;80.48
11806;BME280;5960;42.602;23.482;2022-11-22T01:26:24;92821.56;;;5.53;80.15
11806;BME280;5960;42.602;23.482;2022-11-22T01:28:51;92825.56;;;5.40;79.89
11806;BME280;5960;42.602;23.482;2022-11-22T01:31:19;92826.72;;;5.38;80.14
11806;BME280;5960;42.602;23.482;2022-11-22T01:33:46;92821.47;;;5.38;80.13
11806;BME280;5960;42.602;23.482;2022-11-22T01:36:12;92822.69;;;5.27;79.77
11806;BME280;5960;42.602;23.482;2022-11-22T01:38:39;92818.22;;;5.12;79.72
11806;BME280;5960;42.602;23.482;2022-11-22T01:41:06;92814.88;;;4.95;80.02
11806;BME280;5960;42.602;23.482;2022-11-22T01:43:32;92818.84;;;4.83;80.19
11806;BME280;5960;42.602;23.482;2022-11-22T01:46:00;92829.72;;;4.95;80.44
11806;BME280;5960;42.602;23.482;2022-11-22T01:48:49;92826.25;;;5.03;80.01
11806;BME280;5960;42.602;23.482;2022-11-22T01:51:19;92824.97;;;4.99;79.85
11806;BME280;5960;42.602;23.482;2022-11-22T01:53:51;92832.56;;;4.77;79.75
11806;BME280;5960;42.602;23.482;2022-11-22T01:56:19;92829.09;;;4.85;79.66
11806;BME280;5960;42.602;23.482;2022-11-22T01:58:52;92825.84;;;4.91;80.53
11806;BME280;5960;42.602;23.482;2022-11-22T02:01:21;92825.31;;;4.95;80.42
11806;BME280;5960;42.602;23.482;2022-11-22T02:03:51;92812.06;;;4.97;80.07
11806;BME280;5960;42.602;23.482;2022-11-22T02:06:20;92818.13;;;4.97;80.05
11806;BME280;5960;42.602;23.482;2022-11-22T02:08:53;92816.19;;;4.91;79.66
11806;BME280;5960;42.602;23.482;2022-11-22T02:11:23;92820.09;;;4.95;79.89
11806;BME280;5960;42.602;23.482;2022-11-22T02:13:52;92824.56;;;4.78;79.88
11806;BME280;5960;42.602;23.482;2022-11-22T02:16:19;92820.84;;;4.64;80.30
11806;BME280;5960;42.602;23.482;2022-11-22T02:18:46;92826.13;;;4.48;80.70
11806;BME280;5960;42.602;23.482;2022-11-22T02:21:14;92825.97;;;4.49;80.69
11806;BME280;5960;42.602;23.482;2022-11-22T02:23:49;92822.56;;;4.41;81.29
11806;BME280;5960;42.602;23.482;2022-11-22T02:26:20;92822.69;;;4.56;80.74
11806;BME280;5960;42.602;23.482;2022-11-22T02:28:51;92825.69;;;4.36;81.26
11806;BME280;5960;42.602;23.482;2022-11-22T02:31:35;92826.06;;;4.25;81.28
11806;BME280;5960;42.602;23.482;2022-11-22T02:34:02;92820.97;;;4.23;81.12
11806;BME280;5960;42.602;23.482;2022-11-22T02:36:33;92826.19;;;4.15;81.42
11806;BME280;5960;42.602;23.482;2022-11-22T02:39:00;92826.69;;;4.18;81.43
11806;BME280;5960;42.602;23.482;2022-11-22T02:41:28;92822.94;;;4.21;81.13
11806;BME280;5960;42.602;23.482;2022-11-22T02:43:55;92819.53;;;4.12;81.58
11806;BME280;5960;42.602;23.482;2022-11-22T02:46:22;92818.25;;;4.08;81.68
11806;BME280;5960;42.602;23.482;2022-11-22T02:48:49;92813.84;;;4.09;81.66
11806;BME280;5960;42.602;23.482;2022-11-22T02:51:16;92806.03;;;4.00;82.11
11806;BME280;5960;42.602;23.482;2022-11-22T02:53:45;92806.69;;;4.02;82.04
11806;BME280;5960;42.602;23.482;2022-11-22T02:56:12;92801.00;;;3.99;81.98
11806;BME280;5960;42.602;23.482;2022-11-22T02:58:40;92794.16;;;3.89;82.02
11806;BME280;5960;42.602;23.482;2022-11-22T03:01:06;92784.91;;;3.87;82.27
11806;BME280;5960;42.602;23.482;2022-11-22T03:03:33;92797.75;;;3.80;82.65
11806;BME280;5960;42.602;23.482;2022-11-22T03:06:00;92804.44;;;3.74;83.07
11806;BME280;5960;42.602;23.482;2022-11-22T03:08:28;92799.06;;;3.76;83.27
11806;BME280;5960;42.602;23.482;2022-11-22T03:10:56;92803.13;;;3.79;83.35
11806;BME280;5960;42.602;23.482;2022-11-22T03:13:23;92806.56;;;3.71;82.77
11806;BME280;5960;42.602;23.482;2022-11-22T03:15:51;92801.69;;;3.51;83.38
11806;BME280;5960;42.602;23.482;2022-11-22T03:18:18;92791.59;;;3.48;83.50
11806;BME280;5960;42.602;23.482;2022-11-22T03:20:45;92795.16;;;3.47;83.62
11806;BME280;5960;42.602;23.482;2022-11-22T03:23:12;92793.22;;;3.49;83.93
11806;BME280;5960;42.602;23.482;2022-11-22T03:25:39;92795.97;;;3.56;83.68
11806;BME280;5960;42.602;23.482;2022-11-22T03:28:06;92794.00;;;3.50;83.66
11806;BME280;5960;42.602;23.482;2022-11-22T03:30:33;92799.72;;;3.53;83.76
11806;BME280;5960;42.602;23.482;2022-11-22T03:33:01;92799.72;;;3.45;83.93
11806;BME280;5960;42.602;23.482;2022-11-22T03:35:28;92797.94;;;3.37;84.13
11806;BME280;5960;42.602;23.482;2022-11-22T03:37:54;92791.91;;;3.53;83.69
11806;BME280;5960;42.602;23.482;2022-11-22T03:40:21;92799.06;;;3.51;83.38
11806;BME280;5960;42.602;23.482;2022-11-22T03:42:48;92807.38;;;3.38;84.27
11806;BME280;5960;42.602;23.482;2022-11-22T03:45:15;92798.75;;;3.29;84.78
11806;BME280;5960;42.602;23.482;2022-11-22T03:47:41;92798.88;;;3.20;84.54
11806;BME280;5960;42.602;23.482;2022-11-22T03:50:10;92799.22;;;3.16;85.24
11806;BME280;5960;42.602;23.482;2022-11-22T03:52:36;92794.81;;;3.17;85.55
11806;BME280;5960;42.602;23.482;2022-11-22T03:55:04;92797.25;;;3.10;85.66
11806;BME280;5960;42.602;23.482;2022-11-22T03:57:30;92798.69;;;3.13;86.06
11806;BME280;5960;42.602;23.482;2022-11-22T03:59:57;92808.47;;;3.19;85.68
11806;BME280;5960;42.602;23.482;2022-11-22T04:02:24;92809.44;;;3.18;85.71
11806;BME280;5960;42.602;23.482;2022-11-22T04:04:50;92806.81;;;3.01;85.72
11806;BME280;5960;42.602;23.482;2022-11-22T04:07:19;92819.31;;;2.90;86.06
11806;BME280;5960;42.602;23.482;2022-11-22T04:09:45;92821.06;;;2.81;86.74
11806;BME280;5960;42.602;23.482;2022-11-22T04:12:12;92823.19;;;2.85;86.57
11806;BME280;5960;42.602;23.482;2022-11-22T04:14:39;92823.06;;;2.95;86.76
11806;BME280;5960;42.602;23.482;2022-11-22T04:17:23;92822.75;;;2.98;86.66
11806;BME280;5960;42.602;23.482;2022-11-22T04:20:05;92821.28;;;3.04;86.00
11806;BME280;5960;42.602;23.482;2022-11-22T04:22:55;92819.19;;;3.16;85.86
11806;BME280;5960;42.602;23.482;2022-11-22T04:25:22;92834.81;;;3.16;86.48
11806;BME280;5960;42.602;23.482;2022-11-22T04:27:49;92834.81;;;3.08;86.17
11806;BME280;5960;42.602;23.482;2022-11-22T04:30:16;92841.13;;;3.05;85.74
11806;BME280;5960;42.602;23.482;2022-11-22T04:32:43;92846.50;;;3.04;86.12
11806;BME280;5960;42.602;23.482;2022-11-22T04:35:12;92838.97;;;2.84;86.02
11806;BME280;5960;42.602;23.482;2022-11-22T04:37:40;92842.56;;;2.91;86.32
11806;BME280;5960;42.602;23.482;2022-11-22T04:40:09;92836.38;;;2.84;86.29
11806;BME280;5960;42.602;23.482;2022-11-22T04:42:37;92844.97;;;2.76;87.33
11806;BME280;5960;42.602;23.482;2022-11-22T04:45:21;92838.63;;;2.79;86.65
11806;BME280;5960;42.602;23.482;2022-11-22T04:47:48;92847.81;;;2.65;87.77
11806;BME280;5960;42.602;23.482;2022-11-22T04:50:25;92851.28;;;2.74;87.36
11806;BME280;5960;42.602;23.482;2022-11-22T04:53:09;92855.69;;;2.81;87.06
11806;BME280;5960;42.602;23.482;2022-11-22T04:55:37;92857.50;;;2.81;87.16
11806;BME280;5960;42.602;23.482;2022-11-22T04:58:04;92860.22;;;2.79;86.83
11806;BME280;5960;42.602;23.482;2022-11-22T05:00:31;92855.38;;;2.76;87.31
11806;BME280;5960;42.602;23.482;2022-11-22T05:02:58;92866.84;;;2.65;87.87
11806;BME280;5960;42.602;23.482;2022-11-22T05:05:26;92865.56;;;2.69;88.04
11806;BME280;5960;42.602;23.482;2022-11-22T05:07:53;92855.97;;;2.70;87.28
11806;BME280;5960;42.602;23.482;2022-11-22T05:10:20;92866.06;;;2.73;87.95
11806;BME280;5960;42.602;23.482;2022-11-22T05:12:48;92856.53;;;2.90;88.11
11806;BME280;5960;42.602;23.482;2022-11-22T05:15:15;92853.41;;;2.78;87.62
11806;BME280;5960;42.602;23.482;2022-11-22T05:17:42;92860.31;;;2.96;87.10
11806;BME280;5960;42.602;23.482;2022-11-22T05:20:09;92846.81;;;3.00;86.68
11806;BME280;5960;42.602;23.482;2022-11-22T05:22:36;92858.56;;;3.13;86.24
11806;BME280;5960;42.602;23.482;2022-11-22T05:25:20;92855.50;;;3.26;86.68
11806;BME280;5960;42.602;23.482;2022-11-22T05:27:51;92854.72;;;3.34;85.98
11806;BME280;5960;42.602;23.482;2022-11-22T05:30:18;92863.63;;;3.31;85.96
11806;BME280;5960;42.602;23.482;2022-11-22T05:32:45;92866.41;;;3.29;86.02
11806;BME280;5960;42.602;23.482;2022-11-22T05:35:12;92865.72;;;3.19;85.35
11806;BME280;5960;42.602;23.482;2022-11-22T05:37:38;92861.19;;;3.21;85.85
11806;BME280;5960;42.602;23.482;2022-11-22T05:40:06;92860.19;;;3.14;85.64
11806;BME280;5960;42.602;23.482;2022-11-22T05:42:34;92867.69;;;3.17;85.86
11806;BME280;5960;42.602;23.482;2022-11-22T05:45:03;92862.94;;;3.12;86.43
11806;BME280;5960;42.602;23.482;2022-11-22T05:47:32;92869.00;;;3.21;86.16
11806;BME280;5960;42.602;23.482;2022-11-22T05:49:59;92877.13;;;3.18;86.06
11806;BME280;5960;42.602;23.482;2022-11-22T05:52:26;92881.66;;;3.16;86.54
11806;BME280;5960;42.602;23.482;2022-11-22T05:54:52;92880.72;;;3.25;86.28
11806;BME280;5960;42.602;23.482;2022-11-22T05:57:19;92880.75;;;3.34;86.95
11806;BME280;5960;42.602;23.482;2022-11-22T05:59:46;92873.75;;;3.51;87.08
11806;BME280;5960;42.602;23.482;2022-11-22T06:02:14;92870.03;;;3.53;86.46
11806;BME280;5960;42.602;23.482;2022-11-22T06:04:41;92873.47;;;3.62;85.78
11806;BME280;5960;42.602;23.482;2022-11-22T06:07:07;92873.63;;;3.69;85.65
11806;BME280;5960;42.602;23.482;2022-11-22T06:09:34;92877.38;;;3.74;84.67
11806;BME280;5960;42.602;23.482;2022-11-22T06:12:01;92868.75;;;3.82;84.65
11806;BME280;5960;42.602;23.482;2022-11-22T06:14:28;92873.56;;;4.51;85.54
11806;BME280;5960;42.602;23.482;2022-11-22T06:16:54;92876.94;;;5.48;84.02
11806;BME280;5960;42.602;23.482;2022-11-22T06:19:22;92874.13;;;6.43;81.28
11806;BME280;5960;42.602;23.482;2022-11-22T06:21:49;92867.50;;;7.37;75.77
11806;BME280;5960;42.602;23.482;2022-11-22T06:24:16;92870.88;;;8.11;71.98
11806;BME280;5960;42.602;23.482;2022-11-22T06:26:43;92877.31;;;8.87;68.47
11806;BME280;5960;42.602;23.482;2022-11-22T06:29:09;92874.66;;;9.64;65.19
11806;BME280;5960;42.602;23.482;2022-11-22T06:31:36;92882.28;;;10.34;62.28
11806;BME280;5960;42.602;23.482;2022-11-22T06:34:03;92882.44;;;11.00;59.45
11806;BME280;5960;42.602;23.482;2022-11-22T06:36:33;92872.38;;;11.49;57.01
11806;BME280;5960;42.602;23.482;2022-11-22T06:39:00;92865.84;;;11.97;56.46
11806;BME280;5960;42.602;23.482;2022-11-22T06:41:31;92874.25;;;12.52;55.40
11806;BME280;5960;42.602;23.482;2022-11-22T06:43:58;92874.78;;;12.86;54.11
11806;BME280;5960;42.602;23.482;2022-11-22T06:46:26;92867.16;;;12.96;53.09
11806;BME280;5960;42.602;23.482;2022-11-22T06:48:52;92869.13;;;13.45;52.09
11806;BME280;5960;42.602;23.482;2022-11-22T06:51:21;92878.03;;;13.69;49.76
11806;BME280;5960;42.602;23.482;2022-11-22T06:53:49;92883.53;;;13.98;50.38
11806;BME280;5960;42.602;23.482;2022-11-22T06:56:18;92874.25;;;14.07;50.44
11806;BME280;5960;42.602;23.482;2022-11-22T06:58:46;92880.34;;;13.77;51.18
11806;BME280;5960;42.602;23.482;2022-11-22T07:01:14;92877.56;;;13.35;50.97
11806;BME280;5960;42.602;23.482;2022-11-22T07:03:43;92889.06;;;12.78;51.96
11806;BME280;5960;42.602;23.482;2022-11-22T07:06:12;92884.31;;;11.97;55.16
11806;BME280;5960;42.602;23.482;2022-11-22T07:08:39;92881.09;;;11.50;56.75
11806;BME280;5960;42.602;23.482;2022-11-22T07:11:09;92900.28;;;11.11;57.75
11806;BME280;5960;42.602;23.482;2022-11-22T07:13:37;92898.47;;;11.05;58.91
11806;BME280;5960;42.602;23.482;2022-11-22T07:16:06;92902.50;;;11.01;59.35
11806;BME280;5960;42.602;23.482;2022-11-22T07:18:33;92899.91;;;10.88;59.51
11806;BME280;5960;42.602;23.482;2022-11-22T07:21:00;92887.94;;;10.78;59.23
11806;BME280;5960;42.602;23.482;2022-11-22T07:23:28;92898.50;;;10.72;59.58
11806;BME280;5960;42.602;23.482;2022-11-22T07:39:16;92877.16;;;11.13;61.27
11806;BME280;5960;42.602;23.482;2022-11-22T07:41:43;92874.88;;;11.24;59.69
11806;BME280;5960;42.602;23.482;2022-11-22T07:44:09;92863.31;;;11.25;60.75
11806;BME280;5960;42.602;23.482;2022-11-22T07:46:36;92849.25;;;11.44;60.97
11806;BME280;5960;42.602;23.482;2022-11-22T07:49:03;92849.78;;;11.67;59.48
11806;BME280;5960;42.602;23.482;2022-11-22T07:51:30;92863.00;;;11.99;58.81
11806;BME280;5960;42.602;23.482;2022-11-22T07:53:56;92863.19;;;12.04;57.42
11806;BME280;5960;42.602;23.482;2022-11-22T07:56:25;92858.91;;;11.64;58.42
11806;BME280;5960;42.602;23.482;2022-11-22T07:58:51;92861.34;;;11.13;59.69
11806;BME280;5960;42.602;23.482;2022-11-22T08:01:18;92863.44;;;10.64;61.09
11806;BME280;5960;42.602;23.482;2022-11-22T08:03:45;92876.59;;;10.31;62.74
11806;BME280;5960;42.602;23.482;2022-11-22T08:06:12;92869.91;;;10.21;62.73
11806;BME280;5960;42.602;23.482;2022-11-22T08:08:40;92871.06;;;9.92;63.70
11806;BME280;5960;42.602;23.482;2022-11-22T08:11:07;92873.44;;;9.67;64.73
11806;BME280;5960;42.602;23.482;2022-11-22T08:13:35;92876.22;;;9.52;66.00
11806;BME280;5960;42.602;23.482;2022-11-22T08:16:03;92873.59;;;9.58;66.27
11806;BME280;5960;42.602;23.482;2022-11-22T08:18:31;92871.69;;;9.32;66.44
11806;BME280;5960;42.602;23.482;2022-11-22T08:21:02;92868.84;;;9.27;66.80
11806;BME280;5960;42.602;23.482;2022-11-22T08:23:29;92862.88;;;9.05;67.61
11806;BME280;5960;42.602;23.482;2022-11-22T08:25:56;92864.19;;;8.87;68.58
11806;BME280;5960;42.602;23.482;2022-11-22T08:28:23;92869.59;;;8.79;69.15
11806;BME280;5960;42.602;23.482;2022-11-22T08:30:58;92875.81;;;8.71;69.79
11806;BME280;5960;42.602;23.482;2022-11-22T08:33:25;92863.38;;;8.51;69.01
11806;BME280;5960;42.602;23.482;2022-11-22T08:35:51;92856.38;;;8.43;70.64
11806;BME280;5960;42.602;23.482;2022-11-22T08:38:18;92849.09;;;8.39;70.95
11806;BME280;5960;42.602;23.482;2022-11-22T08:40:45;92830.13;;;8.43;70.66
11806;BME280;5960;42.602;23.482;2022-11-22T08:43:12;92826.31;;;8.39;69.37
11806;BME280;5960;42.602;23.482;2022-11-22T08:45:38;92822.47;;;8.13;70.53
11806;BME280;5960;42.602;23.482;2022-11-22T08:48:06;92818.28;;;8.19;71.18
11806;BME280;5960;42.602;23.482;2022-11-22T08:50:33;92822.97;;;8.31;72.04
11806;BME280;5960;42.602;23.482;2022-11-22T08:53:00;92826.31;;;8.39;72.79
11806;BME280;5960;42.602;23.482;2022-11-22T08:55:27;92815.84;;;8.46;73.78
11806;BME280;5960;42.602;23.482;2022-11-22T08:57:57;92816.78;;;8.60;72.42
11806;BME280;5960;42.602;23.482;2022-11-22T09:00:23;92824.28;;;8.63;70.79
11806;BME280;5960;42.602;23.482;2022-11-22T09:02:50;92818.66;;;8.44;71.02
11806;BME280;5960;42.602;23.482;2022-11-22T09:05:19;92812.41;;;8.46;71.93
11806;BME280;5960;42.602;23.482;2022-11-22T09:07:45;92808.97;;;8.45;72.36
11806;BME280;5960;42.602;23.482;2022-11-22T09:10:12;92809.56;;;8.40;72.58
11806;BME280;5960;42.602;23.482;2022-11-22T09:12:42;92807.72;;;8.41;72.70
11806;BME280;5960;42.602;23.482;2022-11-22T09:15:10;92800.81;;;8.33;72.74
11806;BME280;5960;42.602;23.482;2022-11-22T09:17:37;92809.09;;;8.37;73.02
11806;BME280;5960;42.602;23.482;2022-11-22T09:20:05;92803.28;;;8.41;73.22
11806;BME280;5960;42.602;23.482;2022-11-22T09:22:33;92795.59;;;8.40;72.83
11806;BME280;5960;42.602;23.482;2022-11-22T09:25:00;92793.53;;;8.57;73.51
11806;BME280;5960;42.602;23.482;2022-11-22T09:27:27;92789.97;;;8.71;72.83
11806;BME280;5960;42.602;23.482;2022-11-22T09:29:54;92801.72;;;8.82;72.85
11806;BME280;5960;42.602;23.482;2022-11-22T09:32:20;92795.72;;;8.95;71.63
11806;BME280;5960;42.602;23.482;2022-11-22T09:34:47;92802.50;;;9.18;72.55
11806;BME280;5960;42.602;23.482;2022-11-22T09:37:14;92808.22;;;9.42;71.21
11806;BME280;5960;42.602;23.482;2022-11-22T09:39:45;92800.56;;;9.54;70.21
11806;BME280;5960;42.602;23.482;2022-11-22T09:42:39;92799.16;;;9.51;70.04
11806;BME280;5960;42.602;23.482;2022-11-22T09:45:29;92801.84;;;9.98;70.09
11806;BME280;5960;42.602;23.482;2022-11-22T09:48:08;92790.94;;;10.21;68.94
11806;BME280;5960;42.602;23.482;2022-11-22T09:50:45;92793.38;;;10.43;67.08
11806;BME280;5960;42.602;23.482;2022-11-22T09:53:18;92784.06;;;10.54;64.62
11806;BME280;5960;42.602;23.482;2022-11-22T09:55:51;92774.94;;;10.03;65.67
11806;BME280;5960;42.602;23.482;2022-11-22T09:58:26;92773.94;;;9.84;67.22
11806;BME280;5960;42.602;23.482;2022-11-22T10:01:00;92774.13;;;9.82;67.54
11806;BME280;5960;42.602;23.482;2022-11-22T10:03:36;92772.09;;;9.71;67.76
11806;BME280;5960;42.602;23.482;2022-11-22T10:06:11;92772.25;;;9.49;68.16
11806;BME280;5960;42.602;23.482;2022-11-22T10:08:43;92771.75;;;9.12;68.18
11806;BME280;5960;42.602;23.482;2022-11-22T10:11:20;92772.25;;;8.87;69.20
11806;BME280;5960;42.602;23.482;2022-11-22T10:13:52;92759.84;;;8.67;70.34
11806;BME280;5960;42.602;23.482;2022-11-22T10:16:26;92750.19;;;8.75;70.66
11806;BME280;5960;42.602;23.482;2022-11-22T10:19:00;92753.69;;;8.95;71.65
11806;BME280;5960;42.602;23.482;2022-11-22T10:21:29;92747.59;;;9.43;71.96
11806;BME280;5960;42.602;23.482;2022-11-22T10:23:56;92736.88;;;9.85;69.85
11806;BME280;5960;42.602;23.482;2022-11-22T10:26:26;92731.00;;;10.17;68.68
11806;BME280;5960;42.602;23.482;2022-11-22T10:29:04;92724.28;;;10.48;68.53
11806;BME280;5960;42.602;23.482;2022-11-22T10:31:39;92716.28;;;10.81;67.53
11806;BME280;5960;42.602;23.482;2022-11-22T10:34:15;92720.63;;;11.08;65.87
11806;BME280;5960;42.602;23.482;2022-11-22T10:36:48;92716.00;;;11.67;65.55
11806;BME280;5960;42.602;23.482;2022-11-22T10:39:22;92702.63;;;13.13;60.84
11806;BME280;5960;42.602;23.482;2022-11-22T10:42:22;92702.50;;;15.40;55.85
11806;BME280;5960;42.602;23.482;2022-11-22T10:44:59;92699.34;;;16.97;51.42
11806;BME280;5960;42.602;23.482;2022-11-22T10:47:38;92704.06;;;17.12;49.19
11806;BME280;5960;42.602;23.482;2022-11-22T10:50:12;92689.81;;;16.79;49.13
11806;BME280;5960;42.602;23.482;2022-11-22T10:52:45;92683.19;;;16.81;49.24
11806;BME280;5960;42.602;23.482;2022-11-22T10:55:28;92693.72;;;16.54;49.20
11806;BME280;5960;42.602;23.482;2022-11-22T10:58:09;92679.31;;;15.82;50.46
11806;BME280;5960;42.602;23.482;2022-11-22T11:00:43;92675.34;;;15.21;51.36
11806;BME280;5960;42.602;23.482;2022-11-22T11:03:29;92679.53;;;14.17;54.10
11806;BME280;5960;42.602;23.482;2022-11-22T11:06:02;92675.31;;;13.31;56.48
11806;BME280;5960;42.602;23.482;2022-11-22T11:08:36;92684.16;;;12.94;58.74
11806;BME280;5960;42.602;23.482;2022-11-22T11:11:05;92682.47;;;12.62;60.06
11806;BME280;5960;42.602;23.482;2022-11-22T11:13:35;92682.63;;;12.30;60.94
11806;BME280;5960;42.602;23.482;2022-11-22T11:16:08;92689.19;;;12.02;61.81
11806;BME280;5960;42.602;23.482;2022-11-22T11:18:38;92694.66;;;11.76;63.33
11806;BME280;5960;42.602;23.482;2022-11-22T11:21:10;92701.41;;;11.39;63.72
11806;BME280;5960;42.602;23.482;2022-11-22T11:23:37;92701.28;;;11.21;64.97
11806;BME280;5960;42.602;23.482;2022-11-22T11:26:17;92699.22;;;10.91;65.91
11806;BME280;5960;42.602;23.482;2022-11-22T11:28:46;92694.06;;;10.64;66.39
11806;BME280;5960;42.602;23.482;2022-11-22T11:31:13;92690.44;;;10.58;66.16
11806;BME280;5960;42.602;23.482;2022-11-22T11:33:43;92681.38;;;10.41;66.66
11806;BME280;5960;42.602;23.482;2022-11-22T11:36:14;92683.84;;;10.15;67.51
11806;BME280;5960;42.602;23.482;2022-11-22T11:38:53;92680.22;;;9.96;68.69
11806;BME280;5960;42.602;23.482;2022-11-22T11:41:23;92677.19;;;9.79;70.06
11806;BME280;5960;42.602;23.482;2022-11-22T11:43:52;92677.00;;;9.74;70.56
11806;BME280;5960;42.602;23.482;2022-11-22T11:46:20;92672.34;;;9.69;71.14
11806;BME280;5960;42.602;23.482;2022-11-22T11:48:48;92679.03;;;9.78;71.16
11806;BME280;5960;42.602;23.482;2022-11-22T11:51:24;92660.22;;;9.75;71.12
11806;BME280;5960;42.602;23.482;2022-11-22T11:54:02;92654.53;;;9.64;71.68
11806;BME280;5960;42.602;23.482;2022-11-22T11:56:34;92659.81;;;9.58;72.75
11806;BME280;5960;42.602;23.482;2022-11-22T11:59:10;92650.09;;;9.52;73.11
11806;BME280;5960;42.602;23.482;2022-11-22T12:01:45;92651.69;;;9.12;74.49
11806;BME280;5960;42.602;23.482;2022-11-22T12:04:18;92646.00;;;8.95;75.24
11806;BME280;5960;42.602;23.482;2022-11-22T12:06:53;92655.72;;;9.01;76.07
11806;BME280;5960;42.602;23.482;2022-11-22T12:09:27;92657.72;;;8.99;76.33
11806;BME280;5960;42.602;23.482;2022-11-22T12:11:58;92653.72;;;9.03;76.47
11806;BME280;5960;42.602;23.482;2022-11-22T12:14:30;92646.44;;;9.06;76.65
11806;BME280;5960;42.602;23.482;2022-11-22T12:17:00;92634.09;;;9.06;76.89
11806;BME280;5960;42.602;23.482;2022-11-22T12:19:37;92631.50;;;9.26;76.65
11806;BME280;5960;42.602;23.482;2022-11-22T12:22:16;92624.84;;;9.30;74.07
11806;BME280;5960;42.602;23.482;2022-11-22T12:24:50;92623.81;;;9.38;69.92
11806;BME280;5960;42.602;23.482;2022-11-22T12:27:19;92623.22;;;9.36;66.93
11806;BME280;5960;42.602;23.482;2022-11-22T12:29:47;92614.72;;;9.41;63.06
11806;BME280;5960;42.602;23.482;2022-11-22T12:32:17;92620.19;;;9.39;64.44
11806;BME280;5960;42.602;23.482;2022-11-22T12:34:52;92615.50;;;9.34;63.46
11806;BME280;5960;42.602;23.482;2022-11-22T12:37:25;92616.34;;;9.35;63.55
11806;BME280;5960;42.602;23.482;2022-11-22T12:39:55;92604.00;;;9.36;63.70
11806;BME280;5960;42.602;23.482;2022-11-22T12:42:28;92622.22;;;9.30;64.66
11806;BME280;5960;42.602;23.482;2022-11-22T12:45:01;92618.16;;;9.28;63.19
11806;BME280;5960;42.602;23.482;2022-11-22T12:47:34;92617.56;;;9.32;66.06
11806;BME280;5960;42.602;23.482;2022-11-22T12:50:07;92612.69;;;9.29;66.97
11806;BME280;5960;42.602;23.482;2022-11-22T12:52:40;92601.59;;;9.27;67.66
11806;BME280;5960;42.602;23.482;2022-11-22T12:55:15;92601.56;;;9.14;68.54
11806;BME280;5960;42.602;23.482;2022-11-22T12:57:49;92582.97;;;9.02;69.34
11806;BME280;5960;42.602;23.482;2022-11-22T13:00:21;92589.84;;;9.03;71.08
11806;BME280;5960;42.602;23.482;2022-11-22T13:02:58;92587.81;;;9.05;70.90
11806;BME280;5960;42.602;23.482;2022-11-22T13:05:28;92584.78;;;9.15;71.91
11806;BME280;5960;42.602;23.482;2022-11-22T13:08:02;92580.31;;;9.02;73.31
11806;BME280;5960;42.602;23.482;2022-11-22T13:10:35;92573.66;;;8.99;73.92
11806;BME280;5960;42.602;23.482;2022-11-22T13:13:06;92585.41;;;9.03;74.37
11806;BME280;5960;42.602;23.482;2022-11-22T13:15:38;92584.78;;;9.01;75.39
11806;BME280;5960;42.602;23.482;2022-11-22T13:18:08;92591.84;;;8.81;76.10
11806;BME280;5960;42.602;23.482;2022-11-22T13:20:37;92600.88;;;8.58;77.13
11806;BME280;5960;42.602;23.482;2022-11-22T13:23:18;92587.13;;;8.56;77.60
11806;BME280;5960;42.602;23.482;2022-11-22T13:26:00;92589.38;;;8.59;78.59
11806;BME280;5960;42.602;23.482;2022-11-22T13:28:33;92595.84;;;8.63;79.48
11806;BME280;5960;42.602;23.482;2022-11-22T13:31:13;92590.13;;;8.46;74.11
11806;BME280;5960;42.602;23.482;2022-11-22T13:33:49;92584.41;;;8.29;70.52
11806;BME280;5960;42.602;23.482;2022-11-22T13:36:43;92580.94;;;8.22;69.38